CheckWX is a tool to help pilots better visualize weather data.  It is not intended as a substitute for an official pre-flight weather briefing.

09:23:48 UTC

OMDB METAR
Dubai International Airport
Dubai, United Arab Emirates
Current

24 mins ago

OMDB 060900Z 28010KT 250V310 CAVOK 28/19 Q1014 NOSIG
Observed
Apr-6 @ 09:00 UTC
Wind
  • 280° at 10 KTS
Visibility
10,000+ meters
Flight Rules
VFR
Cloud Levels
  • Clear skies
Temperature
28°C / 82°F
Dewpoint
19°C / 66°F
Humidity
58%
Altimeter
29.94" Hg
Pressure
1013.92 hPa
Previous

1 hour ago

OMDB 060800Z 29011KT 250V320 CAVOK 28/18 Q1014 NOSIG
Observed
Apr-6 @ 08:00 UTC
Wind
  • 290° at 11 KTS
Visibility
10,000+ meters
Flight Rules
VFR
Cloud Levels
  • Clear skies
Temperature
28°C / 82°F
Dewpoint
18°C / 64°F
Humidity
55%
Altimeter
29.94" Hg
Pressure
1013.92 hPa
Previous

2 hours ago

OMDB 060700Z 29009KT CAVOK 29/12 Q1015 NOSIG
Observed
Apr-6 @ 07:00 UTC
Wind
  • 290° at 9 KTS
Visibility
10,000+ meters
Flight Rules
VFR
Cloud Levels
  • Clear skies
Temperature
29°C / 84°F
Dewpoint
12°C / 54°F
Humidity
35%
Altimeter
29.97" Hg
Pressure
1014.92 hPa